Time;durP1;ratioP1;P1;durP2;ratioP2;P2;SDS_P1;SDS_P2;PMS_P1;PMS_P2;Temp;Humidity;BMP_temperature;BMP_pressure;BME280_temperature;BME280_humidity;BME280_pressure;Samples;Min_cycle;Max_cycle;Signal;HPM_P1;HPM_P2
2022/12/10 00:00:06;;;;;;;23.73;16.70;;;;;;;-0.09;59.37;98748.13;10432332;28;20323;-70
2022/12/10 00:05:09;;;;;;;24.97;16.30;;;;;;;-0.01;59.21;98741.31;10416830;28;20261;-69
2022/12/10 00:10:10;;;;;;;23.50;16.80;;;;;;;-0.25;58.61;98750.47;10451370;28;20736;-67
2022/12/10 00:15:13;;;;;;;28.27;16.70;;;;;;;0.56;57.77;98707.06;10445663;28;20226;-67
2022/12/10 00:20:15;;;;;;;22.53;15.80;;;;;;;-0.12;58.84;98742.31;10437700;28;20232;-65
2022/12/10 00:25:16;;;;;;;23.07;16.10;;;;;;;0.12;57.61;98733.94;10424270;28;20310;-65
2022/12/10 00:30:18;;;;;;;20.97;16.17;;;;;;;0.07;58.91;98738.81;10435439;28;20339;-65
2022/12/10 00:35:20;;;;;;;24.23;16.80;;;;;;;0.30;58.34;98736.69;10443894;28;20234;-66
2022/12/10 00:40:22;;;;;;;22.63;14.73;;;;;;;0.63;58.04;98706.34;10445261;28;20271;-65
2022/12/10 00:45:24;;;;;;;23.63;18.03;;;;;;;0.08;59.12;98749.19;10441530;28;20233;-65
2022/12/10 00:50:26;;;;;;;22.23;16.13;;;;;;;0.04;58.50;98731.19;10448914;28;20237;-65
2022/12/10 00:55:27;;;;;;;22.77;16.37;;;;;;;0.69;57.82;98724.16;10448822;28;20229;-65
2022/12/10 01:00:29;;;;;;;21.70;16.07;;;;;;;0.27;57.99;98742.22;10442443;28;20242;-65
2022/12/10 01:05:31;;;;;;;23.80;16.33;;;;;;;0.10;58.13;98763.03;10442289;28;20265;-65
2022/12/10 01:10:33;;;;;;;25.50;16.37;;;;;;;0.50;57.37;98745.34;10440237;28;20236;-64
2022/12/10 01:15:39;;;;;;;23.80;16.53;;;;;;;1.12;56.16;98739.47;10441160;28;20316;-65
2022/12/10 01:20:40;;;;;;;20.43;15.00;;;;;;;0.36;56.88;98751.91;10429056;28;20711;-65
2022/12/10 01:25:42;;;;;;;23.80;15.73;;;;;;;0.20;57.33;98770.91;10443258;28;20239;-65
2022/12/10 01:30:43;;;;;;;26.43;16.73;;;;;;;0.78;57.49;98764.63;10447006;28;20238;-65
2022/12/10 01:35:45;;;;;;;25.00;16.23;;;;;;;0.68;56.65;98766.47;10446358;28;20791;-65
2022/12/10 01:40:47;;;;;;;22.73;16.20;;;;;;;0.28;57.52;98780.72;10441911;28;20244;-65
2022/12/10 01:45:48;;;;;;;22.57;16.73;;;;;;;0.33;57.45;98790.84;10443232;28;20224;-65
2022/12/10 01:50:50;;;;;;;22.77;15.93;;;;;;;1.01;56.25;98759.78;10445478;28;21047;-65
2022/12/10 01:55:52;;;;;;;22.20;15.93;;;;;;;1.17;56.35;98756.50;10440383;28;20724;-65
2022/12/10 02:01:26;;;;;;;25.37;16.43;;;;;;;0.30;57.60;98791.94;10443868;28;20239;-65
2022/12/10 02:07:09;;;;;;;23.23;15.83;;;;;;;-0.09;58.65;98824.38;10493491;28;20237;-64
2022/12/10 02:12:40;;;;;;;22.97;17.60;;;;;;;-0.06;58.85;98820.66;10459774;28;20278;-65
2022/12/10 02:17:50;;;;;;;26.23;18.00;;;;;;;0.36;58.38;98801.06;10484952;28;20878;-64
2022/12/10 02:22:57;;;;;;;22.23;16.07;;;;;;;-0.19;58.50;98817.47;10490054;28;20305;-66
2022/12/10 02:28:13;;;;;;;27.73;17.97;;;;;;;-0.06;59.58;98818.84;10494236;28;20735;-65
2022/12/10 02:33:17;;;;;;;24.83;17.27;;;;;;;-0.50;59.98;98825.47;10485442;28;20266;-65
2022/12/10 02:38:35;;;;;;;25.63;18.13;;;;;;;-0.55;58.97;98822.41;10492398;28;20228;-65
2022/12/10 02:43:37;;;;;;;25.03;17.10;;;;;;;0.21;58.32;98800.69;10481470;28;20886;-65
2022/12/10 02:48:40;;;;;;;25.80;16.50;;;;;;;-0.42;58.97;98794.06;10488171;28;20228;-65
2022/12/10 02:53:44;;;;;;;24.53;17.47;;;;;;;-0.30;58.93;98806.13;10488119;28;20287;-65
2022/12/10 02:59:03;;;;;;;25.70;18.17;;;;;;;-0.76;61.05;98819.88;10492249;28;20729;-64
2022/12/10 03:04:34;;;;;;;24.63;17.83;;;;;;;0.07;58.82;98779.13;10486230;28;21163;-65
2022/12/10 03:09:45;;;;;;;25.43;17.77;;;;;;;0.40;58.26;98790.13;10481839;28;20249;-65
2022/12/10 03:14:48;;;;;;;24.70;17.37;;;;;;;0.33;58.50;98770.59;10484130;28;20859;-65
2022/12/10 03:19:51;;;;;;;26.40;18.77;;;;;;;-0.93;60.77;98821.34;10484556;28;20227;-65
2022/12/10 03:24:53;;;;;;;26.90;18.73;;;;;;;-0.64;60.18;98821.41;10481644;28;20231;-65
2022/12/10 03:29:57;;;;;;;24.20;17.83;;;;;;;-0.25;59.83;98803.06;10489122;28;20232;-65
2022/12/10 03:35:01;;;;;;;28.40;19.67;;;;;;;0.09;59.03;98792.09;10485640;28;20281;-65
2022/12/10 03:40:04;;;;;;;26.10;18.80;;;;;;;-0.14;59.47;98813.47;10485515;28;20244;-65
2022/12/10 03:45:07;;;;;;;28.53;19.73;;;;;;;0.25;58.86;98781.00;10484979;28;20356;-65
2022/12/10 03:50:10;;;;;;;27.70;19.80;;;;;;;-0.46;59.24;98803.22;10495277;28;20664;-65
2022/12/10 03:55:12;;;;;;;27.57;19.43;;;;;;;0.43;58.24;98779.31;10500171;28;20301;-65
2022/12/10 04:00:14;;;;;;;26.87;17.63;;;;;;;0.17;58.03;98800.13;10490916;28;20239;-66
2022/12/10 04:05:16;;;;;;;30.80;19.07;;;;;;;-0.46;59.23;98814.53;10492467;28;20279;-65
2022/12/10 04:10:17;;;;;;;26.00;18.13;;;;;;;-0.11;58.60;98810.56;10495789;28;20296;-65
2022/12/10 04:31:20;;;;;;;29.10;20.40;;;;;;;-0.14;59.20;98805.56;10439855;28;20238;-66
2022/12/10 04:36:22;;;;;;;27.67;19.13;;;;;;;-0.58;59.22;98823.50;10435360;28;20245;-65
2022/12/10 04:41:23;;;;;;;28.50;19.10;;;;;;;-1.00;60.70;98836.78;10458355;28;20665;-65
2022/12/10 04:46:25;;;;;;;29.77;19.50;;;;;;;-0.62;59.93;98807.19;10445282;28;20653;-65
2022/12/10 04:51:26;;;;;;;27.10;19.37;;;;;;;-0.12;59.36;98811.50;10427253;28;20246;-65
2022/12/10 04:56:28;;;;;;;28.00;20.10;;;;;;;-1.02;60.70;98821.16;10456433;28;20238;-66
2022/12/10 05:01:30;;;;;;;27.20;19.70;;;;;;;-0.48;59.88;98813.84;10453542;28;20239;-65
2022/12/10 05:06:33;;;;;;;25.43;18.00;;;;;;;-1.15;60.47;98835.50;10441565;28;20318;-65
2022/12/10 05:11:35;;;;;;;30.17;18.03;;;;;;;-0.29;59.88;98825.34;10442910;28;20235;-65
2022/12/10 05:16:37;;;;;;;28.30;19.53;;;;;;;-1.01;60.38;98862.22;10463563;28;20231;-65
2022/12/10 05:26:59;;;;;;;28.87;19.13;;;;;;;-0.82;60.00;98843.06;10456919;28;20960;-65
2022/12/10 05:32:03;;;;;;;26.40;18.93;;;;;;;-0.48;59.96;98845.41;10457870;28;20696;-65
2022/12/10 05:37:04;;;;;;;27.93;18.80;;;;;;;-0.43;59.38;98845.00;10441759;28;20233;-65
2022/12/10 05:42:06;;;;;;;28.03;19.80;;;;;;;-1.34;60.62;98865.09;10454721;28;20702;-65
2022/12/10 05:47:08;;;;;;;26.33;19.60;;;;;;;-1.05;60.17;98852.94;10428336;28;20233;-65
2022/12/10 05:52:09;;;;;;;31.43;19.60;;;;;;;-1.31;60.08;98868.31;10449853;28;20228;-65
2022/12/10 05:57:11;;;;;;;26.40;18.37;;;;;;;-0.88;59.19;98854.09;10454457;28;20228;-65
2022/12/10 06:02:13;;;;;;;28.60;18.97;;;;;;;-1.12;60.41;98872.00;10448933;28;20263;-65
2022/12/10 06:07:14;;;;;;;28.13;19.73;;;;;;;-1.45;60.55;98868.63;10457233;28;20228;-65
2022/12/10 06:12:16;;;;;;;30.03;20.13;;;;;;;-1.66;61.15;98882.59;10442728;28;20235;-65
2022/12/10 06:17:18;;;;;;;27.97;18.93;;;;;;;-0.98;60.09;98887.38;10449729;28;20236;-65
2022/12/10 06:22:19;;;;;;;27.30;19.40;;;;;;;-0.51;59.09;98866.69;10447948;28;20243;-65
2022/12/10 06:27:21;;;;;;;28.67;18.23;;;;;;;-0.84;59.71;98892.28;10454333;28;20245;-65
2022/12/10 06:32:23;;;;;;;25.50;16.93;;;;;;;-1.03;58.71;98902.72;10445189;28;20235;-65
2022/12/10 06:37:25;;;;;;;29.67;19.70;;;;;;;-1.25;59.33;98912.41;10441797;28;20233;-65
2022/12/10 06:42:27;;;;;;;29.37;20.00;;;;;;;-0.37;58.94;98894.38;10450571;28;20240;-65
2022/12/10 06:47:28;;;;;;;26.93;19.73;;;;;;;-0.21;57.97;98901.75;10448684;28;20243;-67
2022/12/10 06:52:30;;;;;;;27.30;18.60;;;;;;;-1.33;59.30;98948.13;10451770;28;20300;-65
2022/12/10 06:57:32;;;;;;;27.67;18.43;;;;;;;-0.58;58.03;98919.91;10452234;28;20231;-65
2022/12/10 07:02:34;;;;;;;25.57;17.87;;;;;;;-0.32;58.08;98900.06;10448387;28;20229;-65
2022/12/10 07:07:36;;;;;;;25.23;18.33;;;;;;;-1.17;59.44;98949.34;10450860;28;20259;-65
2022/12/10 07:12:38;;;;;;;26.47;18.07;;;;;;;-0.62;58.46;98920.16;10450640;28;20239;-65
2022/12/10 07:17:39;;;;;;;25.53;18.23;;;;;;;-0.50;58.25;98922.72;10446850;28;20228;-65
2022/12/10 07:22:41;;;;;;;26.07;18.90;;;;;;;-1.10;58.94;98946.22;10447032;28;20278;-65
2022/12/10 07:27:43;;;;;;;24.40;17.10;;;;;;;-0.23;57.74;98935.25;10441621;28;20229;-65
2022/12/10 07:32:45;;;;;;;24.53;17.30;;;;;;;0.21;57.04;98924.38;10453419;28;20243;-66
2022/12/10 07:37:47;;;;;;;27.17;17.57;;;;;;;-0.20;56.99;98936.78;10442421;28;20243;-65
2022/12/10 07:42:49;;;;;;;27.17;16.80;;;;;;;-0.15;57.03;98951.16;10437135;28;20228;-66
2022/12/10 07:47:50;;;;;;;24.70;16.73;;;;;;;-0.07;56.82;98943.44;10450922;28;20246;-65
2022/12/10 07:52:52;;;;;;;24.30;15.70;;;;;;;-0.00;56.29;98950.78;10442922;28;20243;-66
2022/12/10 07:57:54;;;;;;;22.83;16.17;;;;;;;-0.95;57.26;98994.00;10450268;28;20235;-65
2022/12/10 08:02:56;;;;;;;52.77;32.80;;;;;;;-0.52;57.40;98985.94;10447425;28;20236;-65
2022/12/10 08:07:58;;;;;;;24.70;18.10;;;;;;;0.30;55.09;98948.03;10426117;28;20233;-66
2022/12/10 08:13:07;;;;;;;23.60;16.97;;;;;;;-0.08;55.89;98975.13;10471530;28;20231;-66
2022/12/10 08:18:08;;;;;;;21.73;15.60;;;;;;;-0.11;56.70;98996.47;10470957;28;21156;-65
2022/12/10 08:23:10;;;;;;;22.17;16.03;;;;;;;0.68;54.86;98956.91;10483359;28;20227;-66
2022/12/10 08:28:12;;;;;;;23.07;15.97;;;;;;;0.37;55.50;98986.97;10459185;28;20242;-65
2022/12/10 08:33:14;;;;;;;24.27;17.67;;;;;;;0.29;55.12;98993.78;10467568;28;20235;-66
2022/12/10 08:38:15;;;;;;;21.53;15.60;;;;;;;-0.26;57.00;99024.94;10473837;28;20610;-66
2022/12/10 08:43:17;;;;;;;24.03;15.90;;;;;;;-0.45;56.76;99033.56;10470619;28;20246;-66
2022/12/10 08:48:19;;;;;;;24.83;16.93;;;;;;;-0.54;57.22;99034.34;10454691;28;20227;-66
2022/12/10 08:53:20;;;;;;;22.93;15.63;;;;;;;-1.30;58.56;99058.97;10473597;28;20236;-65
2022/12/10 08:58:22;;;;;;;23.83;16.63;;;;;;;-0.56;57.09;99044.16;10455058;28;20231;-65
2022/12/10 09:03:25;;;;;;;23.37;16.77;;;;;;;0.29;56.07;99009.56;10484617;28;20251;-66
2022/12/10 09:08:26;;;;;;;23.40;16.47;;;;;;;0.84;55.02;98995.81;10477554;28;20246;-66
2022/12/10 09:13:28;;;;;;;22.67;17.20;;;;;;;0.26;54.90;99027.44;10460012;28;20246;-66
2022/12/10 09:18:30;;;;;;;20.07;15.63;;;;;;;-0.07;54.99;99042.56;10474738;28;20810;-66
2022/12/10 09:23:31;;;;;;;23.33;15.43;;;;;;;-0.13;55.51;99062.34;10454695;28;20253;-65
2022/12/10 09:28:33;;;;;;;21.43;15.37;;;;;;;-0.10;55.91;99069.13;10477940;28;20230;-66
2022/12/10 09:33:35;;;;;;;20.90;15.27;;;;;;;-0.78;56.49;99100.28;10466477;28;21542;-66
2022/12/10 09:38:39;;;;;;;20.63;15.30;;;;;;;-0.72;56.68;99105.88;10463455;28;20243;-66
2022/12/10 09:43:55;;;;;;;18.87;14.43;;;;;;;0.07;55.45;99065.88;10471554;28;20856;-66
2022/12/10 09:49:26;;;;;;;22.43;14.67;;;;;;;0.38;54.78;99063.19;10457987;28;20227;-65
2022/12/10 09:54:43;;;;;;;20.23;14.77;;;;;;;-0.63;56.12;99106.88;10467770;28;20267;-66
2022/12/10 09:59:50;;;;;;;19.10;14.60;;;;;;;0.55;54.72;99068.75;10456784;28;20248;-66
2022/12/10 10:05:01;;;;;;;17.67;13.00;;;;;;;0.42;54.07;99064.56;10467041;28;20827;-66
2022/12/10 10:10:19;;;;;;;27.80;22.97;;;;;;;-0.03;55.06;99087.84;10479376;28;20240;-66
2022/12/10 10:15:28;;;;;;;18.97;14.43;;;;;;;0.31;54.88;99091.84;10464666;28;20220;-66
2022/12/10 10:20:30;;;;;;;21.17;13.60;;;;;;;0.93;53.74;99060.00;10472805;28;20235;-65
2022/12/10 10:25:32;;;;;;;25.50;18.70;;;;;;;0.64;54.45;99079.28;10456762;28;20256;-66
2022/12/10 10:30:34;;;;;;;16.30;12.43;;;;;;;0.78;53.03;99074.56;10465834;28;21276;-65
2022/12/10 10:35:46;;;;;;;18.57;13.83;;;;;;;0.57;54.30;99088.69;10482490;28;20381;-65
2022/12/10 10:40:57;;;;;;;27.90;23.33;;;;;;;0.79;53.79;99081.50;10457245;28;20903;-65
2022/12/10 10:46:22;;;;;;;17.83;15.00;;;;;;;1.38;52.32;99077.88;10475927;28;20387;-66
2022/12/10 10:51:24;;;;;;;20.37;16.83;;;;;;;1.07;53.20;99087.75;10459360;28;20272;-66
2022/12/10 10:56:46;;;;;;;19.67;16.53;;;;;;;0.41;53.49;99109.44;10473318;28;20265;-66
2022/12/10 11:06:14;;;;;;;14.10;11.93;;;;;;;-0.32;56.84;99131.44;10513185;27;20325;-64
2022/12/10 11:11:24;;;;;;;14.70;11.83;;;;;;;-0.71;57.13;99148.72;10431102;28;20233;-65
2022/12/10 11:16:26;;;;;;;15.57;12.30;;;;;;;-0.53;56.88;99141.16;10386606;28;20322;-66
2022/12/10 11:21:32;;;;;;;15.70;11.63;;;;;;;-1.08;57.66;99149.13;10418946;28;20238;-66
2022/12/10 11:26:53;;;;;;;12.90;11.17;;;;;;;-0.02;56.89;99110.56;10390064;28;20229;-66
2022/12/10 11:32:12;;;;;;;16.17;12.20;;;;;;;-0.28;56.80;99103.13;10414997;28;20263;-65
2022/12/10 11:37:53;;;;;;;15.83;12.50;;;;;;;0.15;55.69;99088.06;10418525;28;20721;-65
2022/12/10 11:43:19;;;;;;;14.67;10.93;;;;;;;0.52;54.72;99069.84;10370804;28;20692;-65
2022/12/10 11:48:42;;;;;;;13.17;11.23;;;;;;;-0.60;56.68;99104.00;10401855;28;20249;-65
2022/12/10 11:53:53;;;;;;;14.47;10.60;;;;;;;0.45;56.06;99090.63;10397949;28;20230;-65
2022/12/10 11:59:14;;;;;;;13.90;11.60;;;;;;;0.08;55.48;99095.66;10406195;28;20229;-65
2022/12/10 12:04:43;;;;;;;14.90;11.40;;;;;;;0.63;54.97;99079.41;10390654;28;20238;-65
2022/12/10 12:10:26;;;;;;;16.47;12.83;;;;;;;0.43;54.96;99099.63;10402454;28;20257;-65
2022/12/10 12:15:36;;;;;;;28.17;20.03;;;;;;;0.87;54.69;99098.28;10372877;28;20925;-64
2022/12/10 12:20:42;;;;;;;33.10;22.23;;;;;;;0.91;54.58;99093.56;10376462;28;20676;-66
2022/12/10 12:25:48;;;;;;;22.80;16.43;;;;;;;0.21;55.24;99119.09;10351767;28;20236;-66
2022/12/10 12:31:02;;;;;;;18.90;14.30;;;;;;;0.92;54.44;99107.59;10390109;28;20266;-67
2022/12/10 12:36:09;;;;;;;19.60;15.67;;;;;;;0.42;54.63;99124.28;10375748;28;20230;-65
2022/12/10 12:41:42;;;;;;;15.20;12.47;;;;;;;0.91;54.13;99114.66;10392474;28;20268;-64
2022/12/10 12:46:48;;;;;;;13.63;11.03;;;;;;;0.40;54.59;99139.38;10381817;28;20246;-64
2022/12/10 12:52:00;;;;;;;12.77;11.10;;;;;;;0.18;54.50;99151.75;10391344;28;20237;-64
2022/12/10 12:57:26;;;;;;;12.57;9.67;;;;;;;0.95;53.46;99131.84;10364162;28;20275;-65
2022/12/10 13:02:46;;;;;;;16.10;12.83;;;;;;;0.83;53.09;99133.78;10370994;28;20650;-65
2022/12/10 13:08:19;;;;;;;13.30;11.00;;;;;;;0.19;54.18;99169.22;10367095;28;20260;-65
2022/12/10 13:13:38;;;;;;;14.73;11.73;;;;;;;0.41;54.11;99181.38;10369363;28;20264;-65
2022/12/10 13:18:40;;;;;;;15.17;9.93;;;;;;;1.11;53.09;99154.19;10375315;28;20285;-65
2022/12/10 13:24:06;;;;;;;11.87;10.07;;;;;;;0.90;53.47;99184.13;10358999;28;20234;-65
2022/12/10 13:29:13;;;;;;;10.83;9.37;;;;;;;1.70;52.16;99157.63;10371562;28;20246;-65
2022/12/10 13:34:22;;;;;;;12.10;10.17;;;;;;;0.89;53.79;99211.44;10368045;28;20255;-65
2022/12/10 13:39:41;;;;;;;12.00;9.70;;;;;;;0.79;53.34;99202.66;10368699;28;20235;-65
2022/12/10 13:44:49;;;;;;;11.93;8.73;;;;;;;0.82;52.95;99228.75;10360005;28;20302;-65
2022/12/10 13:49:57;;;;;;;11.73;9.97;;;;;;;1.34;52.51;99207.50;10377591;28;20254;-67
2022/12/10 13:55:12;;;;;;;16.40;12.03;;;;;;;2.19;51.09;99205.00;10381745;28;20234;-64
2022/12/10 14:00:32;;;;;;;22.47;18.23;;;;;;;0.71;52.65;99244.66;10350515;28;20235;-64
2022/12/10 14:05:39;;;;;;;29.67;22.87;;;;;;;1.52;52.37;99241.91;10342542;28;20866;-64
2022/12/10 14:10:42;;;;;;;16.07;13.37;;;;;;;1.41;51.89;99238.44;10385648;28;20236;-64
2022/12/10 14:15:53;;;;;;;13.07;11.60;;;;;;;1.50;51.86;99244.69;10380442;28;20243;-65
2022/12/10 14:20:55;;;;;;;13.20;11.27;;;;;;;1.38;52.50;99261.59;10353754;28;20745;-64
2022/12/10 14:25:57;;;;;;;13.93;11.33;;;;;;;0.97;52.14;99264.28;10355938;28;20291;-64
2022/12/10 14:30:59;;;;;;;11.60;9.93;;;;;;;1.22;51.81;99262.94;10335421;28;20232;-66
2022/12/10 14:36:01;;;;;;;15.20;10.83;;;;;;;1.31;52.07;99282.38;10345761;28;20231;-67
2022/12/10 14:41:03;;;;;;;15.33;10.77;;;;;;;0.88;52.75;99294.06;10341617;28;20313;-63
2022/12/10 14:46:14;;;;;;;15.87;11.83;;;;;;;0.54;52.68;99302.22;10343268;28;20235;-69
2022/12/10 14:51:19;;;;;;;27.90;18.33;;;;;;;1.42;50.90;99276.16;10367617;28;20234;-67
2022/12/10 14:56:27;;;;;;;42.97;27.37;;;;;;;1.85;49.88;99279.41;10346540;28;20244;-68
2022/12/10 15:01:42;;;;;;;62.10;40.20;;;;;;;1.67;50.69;99309.09;10385781;28;20239;-67
2022/12/10 15:06:45;;;;;;;24.77;16.33;;;;;;;2.33;49.09;99294.31;10345069;28;20242;-67
2022/12/10 15:11:56;;;;;;;17.37;13.47;;;;;;;1.40;50.24;99300.03;10382709;28;21002;-66
2022/12/10 15:16:58;;;;;;;19.73;15.43;;;;;;;2.31;50.05;99322.66;10348115;28;20235;-63
2022/12/10 15:22:24;;;;;;;12.37;10.60;;;;;;;2.21;49.88;99319.22;10346521;28;20608;-62
2022/12/10 15:27:26;;;;;;;17.63;13.40;;;;;;;2.69;49.04;99326.19;10378313;28;20863;-62
2022/12/10 15:32:28;;;;;;;16.30;12.63;;;;;;;2.60;49.13;99325.22;10351116;28;20607;-64
2022/12/10 15:37:37;;;;;;;16.90;12.87;;;;;;;2.70;49.48;99330.50;10374743;28;20393;-62
2022/12/10 15:42:44;;;;;;;16.80;13.30;;;;;;;2.51;49.58;99331.38;10353548;28;20842;-67
2022/12/10 15:47:46;;;;;;;17.53;12.33;;;;;;;2.36;49.77;99352.13;10379936;28;20241;-65
2022/12/10 15:52:48;;;;;;;15.27;12.70;;;;;;;2.15;50.05;99354.94;10386923;28;20251;-65
2022/12/10 15:57:50;;;;;;;14.17;11.40;;;;;;;2.68;48.97;99350.94;10356139;28;20248;-65
2022/12/10 16:02:59;;;;;;;16.33;11.87;;;;;;;3.23;48.56;99364.25;10386371;28;20260;-66
2022/12/10 16:08:21;;;;;;;14.23;12.53;;;;;;;2.26;49.72;99359.22;10400634;28;20649;-65
2022/12/10 16:13:30;;;;;;;15.23;12.37;;;;;;;1.95;50.41;99351.47;10387345;28;20233;-65
2022/12/10 16:18:31;;;;;;;18.00;14.23;;;;;;;1.73;51.10;99376.31;10343493;28;20275;-68
2022/12/10 16:23:37;;;;;;;48.17;30.47;;;;;;;1.09;53.08;99401.22;10463865;28;20251;-65
2022/12/10 16:28:38;;;;;;;24.60;18.27;;;;;;;1.43;52.50;99413.16;10460857;28;20661;-66
2022/12/10 16:33:40;;;;;;;28.17;18.80;;;;;;;2.71;50.41;99382.38;10477804;28;20227;-64
2022/12/10 16:38:42;;;;;;;22.80;17.37;;;;;;;2.47;50.92;99374.91;10456726;28;20699;-66
2022/12/10 16:43:44;;;;;;;22.00;17.63;;;;;;;2.68;50.34;99383.47;10472065;28;20933;-63
2022/12/10 16:48:46;;;;;;;19.47;15.30;;;;;;;1.66;51.95;99398.91;10455131;28;20241;-66
2022/12/10 16:53:47;;;;;;;21.40;16.00;;;;;;;1.37;52.86;99402.31;10445131;28;20238;-66
2022/12/10 16:58:49;;;;;;;18.57;14.80;;;;;;;1.87;51.47;99388.25;10447841;28;20719;-67
2022/12/10 17:03:51;;;;;;;20.93;16.67;;;;;;;1.49;53.15;99432.03;10442568;28;20246;-67
2022/12/10 17:08:53;;;;;;;18.73;15.13;;;;;;;1.05;53.69;99419.94;10404412;28;20248;-64
2022/12/10 17:13:55;;;;;;;18.43;14.37;;;;;;;1.52;53.15;99426.50;10402598;28;20242;-64
2022/12/10 17:18:57;;;;;;;20.57;15.50;;;;;;;2.26;51.03;99394.38;10398968;28;20245;-65
2022/12/10 17:23:59;;;;;;;15.40;12.30;;;;;;;1.49;52.26;99400.41;10457589;28;20638;-66
2022/12/10 17:29:11;;;;;;;26.33;15.63;;;;;;;1.45;53.35;99412.19;10443777;28;21034;-67
2022/12/10 17:34:13;;;;;;;36.53;23.53;;;;;;;2.27;51.85;99398.69;10456757;28;20229;-64
2022/12/10 17:39:17;;;;;;;27.33;18.17;;;;;;;2.14;51.74;99391.03;10464142;28;20237;-64
2022/12/10 17:44:23;;;;;;;23.10;15.00;;;;;;;0.22;55.49;99434.75;10398406;28;20243;-65
2022/12/10 17:49:25;;;;;;;19.23;13.80;;;;;;;1.16;53.95;99452.44;10449286;28;20260;-65
2022/12/10 17:54:26;;;;;;;18.70;13.27;;;;;;;1.21;53.60;99447.59;10420827;28;20246;-65
2022/12/10 17:59:29;;;;;;;46.90;35.03;;;;;;;1.61;52.86;99405.44;10451299;28;20232;-62
2022/12/10 18:04:31;;;;;;;25.37;19.27;;;;;;;2.15;51.64;99405.91;10430238;28;20360;-65
2022/12/10 18:09:32;;;;;;;24.73;17.57;;;;;;;1.76;51.97;99400.63;10441577;28;20232;-62
2022/12/10 18:14:34;;;;;;;22.83;17.83;;;;;;;0.43;54.27;99423.44;10447548;28;20577;-63
2022/12/10 18:19:36;;;;;;;20.83;15.57;;;;;;;1.28;54.20;99448.72;10453459;28;20250;-62
2022/12/10 18:24:43;;;;;;;21.93;16.40;;;;;;;1.82;52.56;99406.31;10466200;28;20251;-62
2022/12/10 18:29:45;;;;;;;35.23;27.50;;;;;;;1.08;53.50;99436.44;10462444;28;20735;-62
2022/12/10 18:34:47;;;;;;;31.70;24.87;;;;;;;0.39;54.85;99449.16;10450387;28;20242;-62
2022/12/10 18:39:48;;;;;;;33.93;23.47;;;;;;;0.64;54.47;99447.94;10466180;28;20244;-62
2022/12/10 18:44:50;;;;;;;25.30;19.53;;;;;;;0.72;54.08;99449.97;10456999;28;20319;-62
2022/12/10 18:49:51;;;;;;;23.60;17.60;;;;;;;0.82;53.43;99450.84;10462948;28;20243;-63
2022/12/10 18:54:53;;;;;;;23.60;18.90;;;;;;;0.60;53.92;99451.81;10464964;28;20246;-62
2022/12/10 18:59:55;;;;;;;28.53;20.30;;;;;;;1.16;52.97;99452.44;10437927;28;20235;-60
2022/12/10 19:04:56;;;;;;;27.17;21.50;;;;;;;0.41;54.38;99449.03;10454544;28;20740;-61
2022/12/10 19:09:58;;;;;;;34.27;25.40;;;;;;;0.69;53.61;99466.00;10453736;28;20251;-60
2022/12/10 19:14:59;;;;;;;39.00;28.47;;;;;;;0.43;54.20;99461.13;10458710;28;20642;-61
2022/12/10 19:20:01;;;;;;;43.23;33.47;;;;;;;0.54;54.30;99457.59;10465966;28;20232;-61
2022/12/10 19:25:03;;;;;;;37.77;26.60;;;;;;;1.29;53.47;99452.19;10455365;28;20260;-63
2022/12/10 19:30:16;;;;;;;23.57;18.57;;;;;;;0.51;54.29;99452.56;10467147;28;20248;-61
2022/12/10 19:35:21;;;;;;;23.37;17.30;;;;;;;0.21;54.97;99448.88;10462356;28;20241;-62
2022/12/10 19:40:27;;;;;;;22.97;16.47;;;;;;;-0.01;55.47;99435.78;10470641;28;20294;-62
2022/12/10 19:45:30;;;;;;;22.67;17.63;;;;;;;0.44;54.38;99444.38;10452294;28;20240;-63
2022/12/10 19:50:34;;;;;;;46.93;33.30;;;;;;;0.30;54.83;99437.59;10457903;28;20256;-63
2022/12/10 19:55:36;;;;;;;29.57;20.23;;;;;;;-0.91;57.21;99426.19;10471862;28;20240;-62
2022/12/10 20:00:38;;;;;;;23.13;17.27;;;;;;;-1.33;57.82;99415.41;10461089;28;20236;-62
2022/12/10 20:05:40;;;;;;;26.77;19.40;;;;;;;-0.26;56.30;99412.31;10461965;28;20317;-63
2022/12/10 20:10:41;;;;;;;59.03;33.47;;;;;;;-1.03;57.52;99418.28;10465788;28;20232;-62
2022/12/10 20:15:46;;;;;;;42.73;30.73;;;;;;;0.10;54.58;99412.06;10448282;28;20713;-62
2022/12/10 20:20:48;;;;;;;36.63;26.03;;;;;;;0.56;54.30;99410.06;10468349;28;20248;-63
2022/12/10 20:25:50;;;;;;;38.60;26.77;;;;;;;0.38;53.33;99412.44;10465603;28;20271;-62
2022/12/10 20:30:54;;;;;;;49.83;33.00;;;;;;;0.37;53.01;99416.03;10458346;28;20236;-62
2022/12/10 20:36:00;;;;;;;59.63;33.67;;;;;;;0.23;53.79;99417.19;10467182;28;20318;-61
2022/12/10 20:41:02;;;;;;;84.37;51.77;;;;;;;0.05;54.28;99430.03;10454747;28;20233;-63
2022/12/10 20:46:28;;;;;;;60.63;36.03;;;;;;;-0.26;55.35;99430.72;10462594;28;20992;-63
2022/12/10 20:51:30;;;;;;;40.30;28.47;;;;;;;-0.14;54.89;99428.88;10463717;28;20353;-62
2022/12/10 20:56:32;;;;;;;34.37;24.73;;;;;;;-0.01;55.01;99435.78;10462284;28;20259;-62
2022/12/10 21:01:34;;;;;;;33.30;23.27;;;;;;;0.56;53.01;99415.31;10467211;28;20251;-62
2022/12/10 21:06:36;;;;;;;32.50;23.83;;;;;;;-0.02;54.01;99415.72;10453677;28;20251;-63
2022/12/10 21:11:37;;;;;;;34.83;27.00;;;;;;;-0.20;54.69;99437.25;10458943;28;20640;-62
2022/12/10 21:16:39;;;;;;;31.93;23.17;;;;;;;-0.22;54.89;99426.03;10465558;28;20246;-61
2022/12/10 21:21:41;;;;;;;41.80;28.37;;;;;;;-0.64;55.15;99412.69;10454682;28;20239;-61
2022/12/10 21:26:42;;;;;;;34.60;24.77;;;;;;;-0.86;55.63;99424.88;10461627;28;20239;-62
2022/12/10 21:31:44;;;;;;;30.57;22.80;;;;;;;-1.49;57.53;99423.59;10451074;28;20263;-63
2022/12/10 21:36:46;;;;;;;23.53;17.37;;;;;;;-2.65;60.72;99378.72;10466377;28;20228;-60
2022/12/10 21:47:08;;;;;;;25.00;16.80;;;;;;;-0.27;56.28;99372.97;10454781;28;20711;-62
2022/12/10 21:52:09;;;;;;;23.50;17.37;;;;;;;-0.87;57.13;99390.88;10467013;28;20240;-62
2022/12/10 21:57:11;;;;;;;24.63;17.40;;;;;;;-0.45;56.08;99385.84;10453020;28;20662;-62
2022/12/10 22:02:13;;;;;;;25.47;19.00;;;;;;;-0.67;56.48;99378.75;10456235;28;20241;-61
2022/12/10 22:07:14;;;;;;;26.60;18.60;;;;;;;-0.37;55.78;99377.31;10463554;28;20379;-61
2022/12/10 22:12:16;;;;;;;25.70;18.80;;;;;;;-1.01;57.49;99394.53;10452909;28;20238;-61
2022/12/10 22:17:18;;;;;;;27.57;18.83;;;;;;;-0.64;57.00;99381.16;10462230;28;20286;-62
2022/12/10 22:22:19;;;;;;;25.93;19.23;;;;;;;-1.61;57.60;99391.25;10440328;28;20231;-61
2022/12/10 22:27:21;;;;;;;27.30;19.00;;;;;;;-1.07;57.43;99384.53;10455784;28;20238;-61
2022/12/10 22:32:22;;;;;;;29.53;20.00;;;;;;;-0.60;56.09;99377.34;10460026;28;20235;-62
2022/12/10 22:37:24;;;;;;;24.80;17.13;;;;;;;-0.18;54.94;99367.00;10449546;28;20234;-61
2022/12/10 22:42:26;;;;;;;25.50;17.07;;;;;;;-0.66;55.52;99381.25;10462187;28;20361;-62
2022/12/10 22:47:28;;;;;;;25.13;17.47;;;;;;;-0.31;54.80;99361.88;10459133;28;20266;-57
2022/12/10 22:52:30;;;;;;;27.13;19.00;;;;;;;-1.69;58.06;99381.31;10461815;28;20239;-61
2022/12/10 22:57:32;;;;;;;25.47;19.27;;;;;;;-2.20;58.86;99360.63;10462049;28;20671;-63
2022/12/10 23:02:34;;;;;;;31.47;23.53;;;;;;;-1.08;56.60;99360.03;10443377;28;20246;-63
2022/12/10 23:07:36;;;;;;;27.90;18.83;;;;;;;-1.34;55.76;99367.31;10458567;28;20246;-62
2022/12/10 23:17:58;;;;;;;23.30;17.07;;;;;;;-1.66;56.66;99359.28;10461462;28;20234;-63
2022/12/10 23:23:00;;;;;;;24.47;17.23;;;;;;;-1.97;56.82;99369.41;10478762;28;20237;-67
2022/12/10 23:28:02;;;;;;;22.47;17.13;;;;;;;-1.40;56.39;99347.59;10447616;28;20317;-64
2022/12/10 23:33:04;;;;;;;22.63;17.00;;;;;;;-1.64;55.99;99360.81;10441720;28;20851;-68
2022/12/10 23:38:10;;;;;;;23.37;16.97;;;;;;;-1.33;55.29;99358.47;10445334;28;20246;-63
2022/12/10 23:43:12;;;;;;;26.57;19.03;;;;;;;-0.59;53.89;99341.38;10437801;28;20235;-65
2022/12/10 23:48:14;;;;;;;26.37;18.40;;;;;;;-0.83;53.80;99345.00;10442192;28;20243;-66
2022/12/10 23:53:15;;;;;;;27.07;19.90;;;;;;;-0.89;53.72;99351.56;10412526;28;20243;-69